sensor_id;sensor_type;location;lat;lon;timestamp;P1;durP1;ratioP1;P2;durP2;ratioP2
56567;SDS011;42456;49.956;20.004;2022-11-20T00:01:28;140.70;;;59.17;;
56567;SDS011;42456;49.956;20.004;2022-11-20T00:03:55;163.30;;;66.90;;
56567;SDS011;42456;49.956;20.004;2022-11-20T00:06:23;251.37;;;101.77;;
56567;SDS011;42456;49.956;20.004;2022-11-20T00:08:51;248.73;;;103.47;;
56567;SDS011;42456;49.956;20.004;2022-11-20T00:11:24;263.20;;;103.20;;
56567;SDS011;42456;49.956;20.004;2022-11-20T00:13:52;213.70;;;89.57;;
56567;SDS011;42456;49.956;20.004;2022-11-20T00:16:23;181.37;;;74.07;;
56567;SDS011;42456;49.956;20.004;2022-11-20T00:18:51;137.37;;;58.98;;
56567;SDS011;42456;49.956;20.004;2022-11-20T00:21:21;142.23;;;58.27;;
56567;SDS011;42456;49.956;20.004;2022-11-20T00:23:52;129.97;;;54.43;;
56567;SDS011;42456;49.956;20.004;2022-11-20T00:26:21;111.87;;;51.10;;
56567;SDS011;42456;49.956;20.004;2022-11-20T00:28:50;115.90;;;48.03;;
56567;SDS011;42456;49.956;20.004;2022-11-20T00:31:21;110.37;;;49.03;;
56567;SDS011;42456;49.956;20.004;2022-11-20T00:33:48;107.67;;;48.97;;
56567;SDS011;42456;49.956;20.004;2022-11-20T00:36:15;130.07;;;54.37;;
56567;SDS011;42456;49.956;20.004;2022-11-20T00:38:45;143.30;;;59.93;;
56567;SDS011;42456;49.956;20.004;2022-11-20T00:41:16;150.90;;;61.93;;
56567;SDS011;42456;49.956;20.004;2022-11-20T00:43:41;153.25;;;62.83;;
56567;SDS011;42456;49.956;20.004;2022-11-20T00:46:08;174.53;;;69.47;;
56567;SDS011;42456;49.956;20.004;2022-11-20T00:48:43;131.57;;;53.03;;
56567;SDS011;42456;49.956;20.004;2022-11-20T00:51:13;105.70;;;45.37;;
56567;SDS011;42456;49.956;20.004;2022-11-20T00:53:45;103.00;;;45.30;;
56567;SDS011;42456;49.956;20.004;2022-11-20T00:56:13;110.67;;;47.93;;
56567;SDS011;42456;49.956;20.004;2022-11-20T00:58:42;120.97;;;51.30;;
56567;SDS011;42456;49.956;20.004;2022-11-20T01:01:12;135.28;;;57.93;;
56567;SDS011;42456;49.956;20.004;2022-11-20T01:03:43;144.53;;;57.67;;
56567;SDS011;42456;49.956;20.004;2022-11-20T01:08:55;111.77;;;46.17;;
56567;SDS011;42456;49.956;20.004;2022-11-20T01:11:25;119.40;;;51.65;;
56567;SDS011;42456;49.956;20.004;2022-11-20T01:13:55;114.97;;;50.27;;
56567;SDS011;42456;49.956;20.004;2022-11-20T01:16:25;106.97;;;47.30;;
56567;SDS011;42456;49.956;20.004;2022-11-20T01:18:55;110.43;;;47.80;;
56567;SDS011;42456;49.956;20.004;2022-11-20T01:21:28;113.90;;;49.90;;
56567;SDS011;42456;49.956;20.004;2022-11-20T01:23:58;118.10;;;53.70;;
56567;SDS011;42456;49.956;20.004;2022-11-20T01:26:26;130.23;;;57.83;;
56567;SDS011;42456;49.956;20.004;2022-11-20T01:28:56;119.73;;;51.57;;
56567;SDS011;42456;49.956;20.004;2022-11-20T01:31:24;110.53;;;47.63;;
56567;SDS011;42456;49.956;20.004;2022-11-20T01:34:06;105.50;;;47.83;;
56567;SDS011;42456;49.956;20.004;2022-11-20T01:36:37;102.13;;;47.20;;
56567;SDS011;42456;49.956;20.004;2022-11-20T01:39:10;107.67;;;47.93;;
56567;SDS011;42456;49.956;20.004;2022-11-20T01:41:46;103.00;;;47.30;;
56567;SDS011;42456;49.956;20.004;2022-11-20T01:47:12;105.90;;;46.13;;
56567;SDS011;42456;49.956;20.004;2022-11-20T01:49:50;103.97;;;46.87;;
56567;SDS011;42456;49.956;20.004;2022-11-20T01:57:32;96.67;;;38.87;;
56567;SDS011;42456;49.956;20.004;2022-11-20T02:00:06;100.67;;;45.38;;
56567;SDS011;42456;49.956;20.004;2022-11-20T02:02:35;83.60;;;40.10;;
56567;SDS011;42456;49.956;20.004;2022-11-20T02:05:14;80.77;;;39.47;;
56567;SDS011;42456;49.956;20.004;2022-11-20T02:07:41;90.07;;;41.47;;
56567;SDS011;42456;49.956;20.004;2022-11-20T02:10:07;97.83;;;44.40;;
56567;SDS011;42456;49.956;20.004;2022-11-20T02:12:33;91.43;;;41.87;;
56567;SDS011;42456;49.956;20.004;2022-11-20T02:15:13;88.97;;;42.00;;
56567;SDS011;42456;49.956;20.004;2022-11-20T02:17:40;105.73;;;46.20;;
56567;SDS011;42456;49.956;20.004;2022-11-20T02:20:06;98.27;;;43.83;;
56567;SDS011;42456;49.956;20.004;2022-11-20T02:22:39;91.43;;;42.57;;
56567;SDS011;42456;49.956;20.004;2022-11-20T02:25:05;92.40;;;42.30;;
56567;SDS011;42456;49.956;20.004;2022-11-20T02:27:34;87.40;;;41.23;;
56567;SDS011;42456;49.956;20.004;2022-11-20T02:30:02;90.67;;;43.43;;
56567;SDS011;42456;49.956;20.004;2022-11-20T02:32:36;99.77;;;45.03;;
56567;SDS011;42456;49.956;20.004;2022-11-20T02:35:39;79.13;;;38.63;;
56567;SDS011;42456;49.956;20.004;2022-11-20T02:37:47;85.00;;;41.07;;
56567;SDS011;42456;49.956;20.004;2022-11-20T02:40:16;102.67;;;42.13;;
56567;SDS011;42456;49.956;20.004;2022-11-20T02:42:42;81.33;;;38.93;;
56567;SDS011;42456;49.956;20.004;2022-11-20T02:45:09;91.07;;;40.20;;
56567;SDS011;42456;49.956;20.004;2022-11-20T02:47:35;87.50;;;40.63;;
56567;SDS011;42456;49.956;20.004;2022-11-20T02:50:02;91.27;;;39.87;;
56567;SDS011;42456;49.956;20.004;2022-11-20T02:52:30;93.37;;;42.00;;
56567;SDS011;42456;49.956;20.004;2022-11-20T02:54:56;83.87;;;40.43;;
56567;SDS011;42456;49.956;20.004;2022-11-20T02:57:23;90.50;;;39.63;;
56567;SDS011;42456;49.956;20.004;2022-11-20T02:59:49;83.97;;;39.77;;
56567;SDS011;42456;49.956;20.004;2022-11-20T03:02:15;93.13;;;40.17;;
56567;SDS011;42456;49.956;20.004;2022-11-20T03:04:41;68.70;;;34.13;;
56567;SDS011;42456;49.956;20.004;2022-11-20T03:07:08;86.23;;;37.63;;
56567;SDS011;42456;49.956;20.004;2022-11-20T03:09:35;81.30;;;38.03;;
56567;SDS011;42456;49.956;20.004;2022-11-20T03:12:01;79.73;;;36.13;;
56567;SDS011;42456;49.956;20.004;2022-11-20T03:14:28;76.77;;;36.43;;
56567;SDS011;42456;49.956;20.004;2022-11-20T03:16:54;77.00;;;37.30;;
56567;SDS011;42456;49.956;20.004;2022-11-20T03:19:21;80.73;;;35.20;;
56567;SDS011;42456;49.956;20.004;2022-11-20T03:21:48;82.73;;;36.27;;
56567;SDS011;42456;49.956;20.004;2022-11-20T03:24:14;64.97;;;30.30;;
56567;SDS011;42456;49.956;20.004;2022-11-20T03:26:41;71.87;;;30.87;;
56567;SDS011;42456;49.956;20.004;2022-11-20T03:29:07;71.70;;;31.90;;
56567;SDS011;42456;49.956;20.004;2022-11-20T03:31:35;67.50;;;31.40;;
56567;SDS011;42456;49.956;20.004;2022-11-20T03:34:05;70.47;;;32.37;;
56567;SDS011;42456;49.956;20.004;2022-11-20T03:36:33;68.23;;;32.20;;
56567;SDS011;42456;49.956;20.004;2022-11-20T03:39:02;71.87;;;32.93;;
56567;SDS011;42456;49.956;20.004;2022-11-20T03:41:29;63.37;;;28.63;;
56567;SDS011;42456;49.956;20.004;2022-11-20T03:43:58;67.80;;;30.73;;
56567;SDS011;42456;49.956;20.004;2022-11-20T03:48:53;67.47;;;24.87;;
56567;SDS011;42456;49.956;20.004;2022-11-20T03:56:19;66.20;;;23.57;;
56567;SDS011;42456;49.956;20.004;2022-11-20T03:58:48;60.70;;;23.57;;
56567;SDS011;42456;49.956;20.004;2022-11-20T04:01:18;59.53;;;23.97;;
56567;SDS011;42456;49.956;20.004;2022-11-20T04:03:49;59.47;;;24.70;;
56567;SDS011;42456;49.956;20.004;2022-11-20T04:06:19;54.33;;;23.00;;
56567;SDS011;42456;49.956;20.004;2022-11-20T04:08:47;54.73;;;23.43;;
56567;SDS011;42456;49.956;20.004;2022-11-20T04:13:49;48.03;;;21.60;;
56567;SDS011;42456;49.956;20.004;2022-11-20T04:16:22;54.27;;;23.47;;
56567;SDS011;42456;49.956;20.004;2022-11-20T04:18:53;47.40;;;21.47;;
56567;SDS011;42456;49.956;20.004;2022-11-20T04:21:23;51.33;;;21.87;;
56567;SDS011;42456;49.956;20.004;2022-11-20T04:23:50;61.03;;;21.83;;
56567;SDS011;42456;49.956;20.004;2022-11-20T04:26:18;62.43;;;24.63;;
56567;SDS011;42456;49.956;20.004;2022-11-20T04:28:45;58.27;;;24.33;;
56567;SDS011;42456;49.956;20.004;2022-11-20T04:31:13;59.03;;;23.90;;
56567;SDS011;42456;49.956;20.004;2022-11-20T04:33:43;61.93;;;24.47;;
56567;SDS011;42456;49.956;20.004;2022-11-20T04:36:10;61.47;;;23.87;;
56567;SDS011;42456;49.956;20.004;2022-11-20T04:38:39;62.25;;;24.00;;
56567;SDS011;42456;49.956;20.004;2022-11-20T04:41:08;58.87;;;24.20;;
56567;SDS011;42456;49.956;20.004;2022-11-20T04:43:37;61.00;;;25.00;;
56567;SDS011;42456;49.956;20.004;2022-11-20T04:46:03;56.57;;;23.83;;
56567;SDS011;42456;49.956;20.004;2022-11-20T04:48:30;51.60;;;22.57;;
56567;SDS011;42456;49.956;20.004;2022-11-20T04:50:56;48.87;;;22.97;;
56567;SDS011;42456;49.956;20.004;2022-11-20T04:53:23;52.10;;;22.80;;
56567;SDS011;42456;49.956;20.004;2022-11-20T04:55:49;53.17;;;22.53;;
56567;SDS011;42456;49.956;20.004;2022-11-20T04:58:16;55.73;;;23.37;;
56567;SDS011;42456;49.956;20.004;2022-11-20T05:00:42;55.90;;;22.73;;
56567;SDS011;42456;49.956;20.004;2022-11-20T05:03:08;55.80;;;24.20;;
56567;SDS011;42456;49.956;20.004;2022-11-20T05:05:35;52.60;;;23.23;;
56567;SDS011;42456;49.956;20.004;2022-11-20T05:08:01;60.23;;;23.23;;
56567;SDS011;42456;49.956;20.004;2022-11-20T05:10:27;54.90;;;22.60;;
56567;SDS011;42456;49.956;20.004;2022-11-20T05:12:54;47.93;;;22.43;;
56567;SDS011;42456;49.956;20.004;2022-11-20T05:15:20;50.63;;;23.03;;
56567;SDS011;42456;49.956;20.004;2022-11-20T05:17:47;53.70;;;22.20;;
56567;SDS011;42456;49.956;20.004;2022-11-20T05:20:16;58.52;;;23.98;;
56567;SDS011;42456;49.956;20.004;2022-11-20T05:22:43;51.67;;;23.37;;
56567;SDS011;42456;49.956;20.004;2022-11-20T05:25:10;47.90;;;21.53;;
56567;SDS011;42456;49.956;20.004;2022-11-20T05:27:37;49.63;;;23.23;;
56567;SDS011;42456;49.956;20.004;2022-11-20T05:30:04;50.80;;;22.50;;
56567;SDS011;42456;49.956;20.004;2022-11-20T05:32:32;56.20;;;24.00;;
56567;SDS011;42456;49.956;20.004;2022-11-20T05:34:59;53.97;;;24.23;;
56567;SDS011;42456;49.956;20.004;2022-11-20T05:37:25;53.73;;;23.67;;
56567;SDS011;42456;49.956;20.004;2022-11-20T05:39:51;55.43;;;22.77;;
56567;SDS011;42456;49.956;20.004;2022-11-20T05:42:18;55.63;;;24.43;;
56567;SDS011;42456;49.956;20.004;2022-11-20T05:45:02;52.57;;;24.20;;
56567;SDS011;42456;49.956;20.004;2022-11-20T05:47:31;56.13;;;24.37;;
56567;SDS011;42456;49.956;20.004;2022-11-20T05:49:59;59.70;;;24.57;;
56567;SDS011;42456;49.956;20.004;2022-11-20T05:52:29;54.63;;;24.43;;
56567;SDS011;42456;49.956;20.004;2022-11-20T05:54:55;58.65;;;24.35;;
56567;SDS011;42456;49.956;20.004;2022-11-20T05:57:22;56.63;;;24.03;;
56567;SDS011;42456;49.956;20.004;2022-11-20T05:59:48;59.07;;;25.50;;
56567;SDS011;42456;49.956;20.004;2022-11-20T06:02:14;58.27;;;26.73;;
56567;SDS011;42456;49.956;20.004;2022-11-20T06:04:41;67.80;;;24.97;;
56567;SDS011;42456;49.956;20.004;2022-11-20T06:07:07;58.13;;;24.13;;
56567;SDS011;42456;49.956;20.004;2022-11-20T06:09:33;59.37;;;24.63;;
56567;SDS011;42456;49.956;20.004;2022-11-20T06:11:59;56.63;;;24.60;;
56567;SDS011;42456;49.956;20.004;2022-11-20T06:14:26;58.80;;;24.90;;
56567;SDS011;42456;49.956;20.004;2022-11-20T06:16:52;62.67;;;25.50;;
56567;SDS011;42456;49.956;20.004;2022-11-20T06:19:18;61.27;;;24.77;;
56567;SDS011;42456;49.956;20.004;2022-11-20T06:21:44;50.63;;;23.57;;
56567;SDS011;42456;49.956;20.004;2022-11-20T06:24:13;63.77;;;24.43;;
56567;SDS011;42456;49.956;20.004;2022-11-20T06:26:39;52.63;;;24.10;;
56567;SDS011;42456;49.956;20.004;2022-11-20T06:29:05;59.57;;;25.00;;
56567;SDS011;42456;49.956;20.004;2022-11-20T06:31:32;51.70;;;24.40;;
56567;SDS011;42456;49.956;20.004;2022-11-20T06:34:00;55.37;;;24.27;;
56567;SDS011;42456;49.956;20.004;2022-11-20T06:36:27;58.77;;;24.13;;
56567;SDS011;42456;49.956;20.004;2022-11-20T06:38:53;57.27;;;25.57;;
56567;SDS011;42456;49.956;20.004;2022-11-20T06:41:20;57.80;;;24.37;;
56567;SDS011;42456;49.956;20.004;2022-11-20T06:43:47;63.50;;;26.60;;
56567;SDS011;42456;49.956;20.004;2022-11-20T06:46:14;55.80;;;25.37;;
56567;SDS011;42456;49.956;20.004;2022-11-20T06:48:44;50.48;;;24.85;;
56567;SDS011;42456;49.956;20.004;2022-11-20T06:51:11;52.57;;;25.27;;
56567;SDS011;42456;49.956;20.004;2022-11-20T06:53:37;55.60;;;25.17;;
56567;SDS011;42456;49.956;20.004;2022-11-20T06:56:04;50.47;;;24.23;;
56567;SDS011;42456;49.956;20.004;2022-11-20T06:58:31;56.30;;;25.27;;
56567;SDS011;42456;49.956;20.004;2022-11-20T07:00:59;58.37;;;24.50;;
56567;SDS011;42456;49.956;20.004;2022-11-20T07:03:29;54.60;;;24.90;;
56567;SDS011;42456;49.956;20.004;2022-11-20T07:05:55;51.60;;;25.20;;
56567;SDS011;42456;49.956;20.004;2022-11-20T07:08:23;56.60;;;27.63;;
56567;SDS011;42456;49.956;20.004;2022-11-20T07:10:50;54.87;;;26.27;;
56567;SDS011;42456;49.956;20.004;2022-11-20T07:13:16;61.37;;;27.63;;
56567;SDS011;42456;49.956;20.004;2022-11-20T07:15:42;55.27;;;26.67;;
56567;SDS011;42456;49.956;20.004;2022-11-20T07:18:09;56.17;;;25.60;;
56567;SDS011;42456;49.956;20.004;2022-11-20T07:20:35;57.40;;;26.67;;
56567;SDS011;42456;49.956;20.004;2022-11-20T07:23:01;56.80;;;27.83;;
56567;SDS011;42456;49.956;20.004;2022-11-20T07:25:28;59.07;;;27.77;;
56567;SDS011;42456;49.956;20.004;2022-11-20T07:27:58;64.50;;;29.03;;
56567;SDS011;42456;49.956;20.004;2022-11-20T07:30:29;64.20;;;29.43;;
56567;SDS011;42456;49.956;20.004;2022-11-20T07:32:56;61.03;;;29.87;;
56567;SDS011;42456;49.956;20.004;2022-11-20T07:35:23;65.33;;;28.97;;
56567;SDS011;42456;49.956;20.004;2022-11-20T07:37:50;66.40;;;29.60;;
56567;SDS011;42456;49.956;20.004;2022-11-20T07:40:17;58.83;;;27.77;;
56567;SDS011;42456;49.956;20.004;2022-11-20T07:42:48;59.40;;;28.47;;
56567;SDS011;42456;49.956;20.004;2022-11-20T07:45:19;61.73;;;29.63;;
56567;SDS011;42456;49.956;20.004;2022-11-20T07:47:47;65.50;;;31.40;;
56567;SDS011;42456;49.956;20.004;2022-11-20T07:50:13;71.47;;;33.87;;
56567;SDS011;42456;49.956;20.004;2022-11-20T07:52:40;68.90;;;34.00;;
56567;SDS011;42456;49.956;20.004;2022-11-20T07:55:07;64.90;;;32.90;;
56567;SDS011;42456;49.956;20.004;2022-11-20T07:57:34;64.40;;;32.33;;
56567;SDS011;42456;49.956;20.004;2022-11-20T08:00:01;62.33;;;29.60;;
56567;SDS011;42456;49.956;20.004;2022-11-20T08:02:29;56.73;;;29.73;;
56567;SDS011;42456;49.956;20.004;2022-11-20T08:04:55;60.10;;;30.63;;
56567;SDS011;42456;49.956;20.004;2022-11-20T08:07:21;61.43;;;30.77;;
56567;SDS011;42456;49.956;20.004;2022-11-20T08:09:47;59.90;;;29.70;;
56567;SDS011;42456;49.956;20.004;2022-11-20T08:12:21;63.73;;;30.03;;
56567;SDS011;42456;49.956;20.004;2022-11-20T08:15:00;64.17;;;31.97;;
56567;SDS011;42456;49.956;20.004;2022-11-20T08:17:27;65.50;;;32.57;;
56567;SDS011;42456;49.956;20.004;2022-11-20T08:19:54;53.23;;;27.97;;
56567;SDS011;42456;49.956;20.004;2022-11-20T08:22:20;61.77;;;32.87;;
56567;SDS011;42456;49.956;20.004;2022-11-20T08:24:46;62.93;;;32.13;;
56567;SDS011;42456;49.956;20.004;2022-11-20T08:27:13;63.73;;;32.43;;
56567;SDS011;42456;49.956;20.004;2022-11-20T08:29:39;57.13;;;29.63;;
56567;SDS011;42456;49.956;20.004;2022-11-20T08:32:06;61.53;;;30.13;;
56567;SDS011;42456;49.956;20.004;2022-11-20T08:34:32;65.97;;;33.50;;
56567;SDS011;42456;49.956;20.004;2022-11-20T08:36:58;74.70;;;36.80;;
56567;SDS011;42456;49.956;20.004;2022-11-20T08:39:27;78.63;;;37.67;;
56567;SDS011;42456;49.956;20.004;2022-11-20T08:41:53;66.97;;;34.03;;
56567;SDS011;42456;49.956;20.004;2022-11-20T08:44:19;77.43;;;35.53;;
56567;SDS011;42456;49.956;20.004;2022-11-20T08:46:46;64.57;;;34.40;;
56567;SDS011;42456;49.956;20.004;2022-11-20T08:49:12;70.00;;;36.37;;
56567;SDS011;42456;49.956;20.004;2022-11-20T08:51:40;71.90;;;36.50;;
56567;SDS011;42456;49.956;20.004;2022-11-20T08:54:07;75.53;;;37.57;;
56567;SDS011;42456;49.956;20.004;2022-11-20T08:56:33;69.20;;;35.60;;
56567;SDS011;42456;49.956;20.004;2022-11-20T08:59:00;75.13;;;35.73;;
56567;SDS011;42456;49.956;20.004;2022-11-20T09:01:26;69.90;;;36.23;;
56567;SDS011;42456;49.956;20.004;2022-11-20T09:03:57;77.23;;;37.87;;
56567;SDS011;42456;49.956;20.004;2022-11-20T09:06:24;62.03;;;32.93;;
56567;SDS011;42456;49.956;20.004;2022-11-20T09:08:52;71.57;;;35.90;;
56567;SDS011;42456;49.956;20.004;2022-11-20T09:11:18;73.03;;;37.03;;
56567;SDS011;42456;49.956;20.004;2022-11-20T09:13:45;77.20;;;35.87;;
56567;SDS011;42456;49.956;20.004;2022-11-20T09:16:11;82.10;;;40.53;;
56567;SDS011;42456;49.956;20.004;2022-11-20T09:18:37;69.47;;;37.93;;
56567;SDS011;42456;49.956;20.004;2022-11-20T09:21:05;67.83;;;36.13;;
56567;SDS011;42456;49.956;20.004;2022-11-20T09:23:36;73.27;;;37.00;;
56567;SDS011;42456;49.956;20.004;2022-11-20T09:26:07;76.83;;;38.47;;
56567;SDS011;42456;49.956;20.004;2022-11-20T09:28:38;79.97;;;39.30;;
56567;SDS011;42456;49.956;20.004;2022-11-20T09:31:05;74.33;;;38.37;;
56567;SDS011;42456;49.956;20.004;2022-11-20T09:33:33;76.00;;;40.00;;
56567;SDS011;42456;49.956;20.004;2022-11-20T09:36:00;70.10;;;36.33;;
56567;SDS011;42456;49.956;20.004;2022-11-20T09:38:27;67.57;;;35.33;;
56567;SDS011;42456;49.956;20.004;2022-11-20T09:54:58;73.33;;;40.33;;
56567;SDS011;42456;49.956;20.004;2022-11-20T09:57:32;79.58;;;41.10;;
56567;SDS011;42456;49.956;20.004;2022-11-20T10:00:06;83.80;;;42.73;;
56567;SDS011;42456;49.956;20.004;2022-11-20T10:02:47;86.90;;;46.30;;
56567;SDS011;42456;49.956;20.004;2022-11-20T10:08:14;82.70;;;41.93;;
56567;SDS011;42456;49.956;20.004;2022-11-20T10:30:40;89.77;;;41.63;;
56567;SDS011;42456;49.956;20.004;2022-11-20T10:33:13;81.17;;;40.80;;
56567;SDS011;42456;49.956;20.004;2022-11-20T10:35:55;92.23;;;43.50;;
56567;SDS011;42456;49.956;20.004;2022-11-20T10:38:43;94.63;;;45.33;;
56567;SDS011;42456;49.956;20.004;2022-11-20T10:41:26;87.03;;;41.30;;
56567;SDS011;42456;49.956;20.004;2022-11-20T10:44:15;85.70;;;40.83;;
56567;SDS011;42456;49.956;20.004;2022-11-20T10:49:18;79.85;;;39.63;;
56567;SDS011;42456;49.956;20.004;2022-11-20T10:51:58;80.60;;;39.90;;
56567;SDS011;42456;49.956;20.004;2022-11-20T10:54:37;71.67;;;37.87;;
56567;SDS011;42456;49.956;20.004;2022-11-20T11:08:05;74.50;;;37.70;;
56567;SDS011;42456;49.956;20.004;2022-11-20T11:13:21;66.90;;;34.70;;
56567;SDS011;42456;49.956;20.004;2022-11-20T11:15:52;73.23;;;37.40;;
56567;SDS011;42456;49.956;20.004;2022-11-20T11:18:27;82.27;;;39.50;;
56567;SDS011;42456;49.956;20.004;2022-11-20T11:20:53;74.87;;;36.90;;
56567;SDS011;42456;49.956;20.004;2022-11-20T11:23:32;84.83;;;39.27;;
56567;SDS011;42456;49.956;20.004;2022-11-20T11:26:02;70.63;;;35.50;;
56567;SDS011;42456;49.956;20.004;2022-11-20T11:30:58;62.77;;;31.33;;
56567;SDS011;42456;49.956;20.004;2022-11-20T11:33:25;63.17;;;34.50;;
56567;SDS011;42456;49.956;20.004;2022-11-20T11:35:56;67.73;;;36.03;;
56567;SDS011;42456;49.956;20.004;2022-11-20T11:38:30;70.80;;;37.03;;
56567;SDS011;42456;49.956;20.004;2022-11-20T11:41:04;67.37;;;35.83;;
56567;SDS011;42456;49.956;20.004;2022-11-20T11:43:34;71.22;;;35.63;;
56567;SDS011;42456;49.956;20.004;2022-11-20T11:46:24;72.47;;;35.90;;
56567;SDS011;42456;49.956;20.004;2022-11-20T11:49:17;82.03;;;38.57;;
56567;SDS011;42456;49.956;20.004;2022-11-20T12:00:13;79.97;;;41.57;;
56567;SDS011;42456;49.956;20.004;2022-11-20T12:02:48;81.80;;;40.47;;
56567;SDS011;42456;49.956;20.004;2022-11-20T12:13:53;103.60;;;52.67;;
56567;SDS011;42456;49.956;20.004;2022-11-20T12:16:35;92.22;;;48.38;;
56567;SDS011;42456;49.956;20.004;2022-11-20T12:18:58;79.53;;;41.40;;
56567;SDS011;42456;49.956;20.004;2022-11-20T12:21:31;96.73;;;47.17;;
56567;SDS011;42456;49.956;20.004;2022-11-20T12:27:04;90.40;;;45.73;;
56567;SDS011;42456;49.956;20.004;2022-11-20T12:30:02;83.77;;;44.17;;
56567;SDS011;42456;49.956;20.004;2022-11-20T12:44:15;86.13;;;43.97;;
56567;SDS011;42456;49.956;20.004;2022-11-20T12:47:17;90.27;;;46.43;;
56567;SDS011;42456;49.956;20.004;2022-11-20T12:50:06;89.00;;;44.80;;
56567;SDS011;42456;49.956;20.004;2022-11-20T13:01:00;94.50;;;46.53;;
56567;SDS011;42456;49.956;20.004;2022-11-20T13:06:18;78.63;;;38.87;;
56567;SDS011;42456;49.956;20.004;2022-11-20T13:08:49;72.43;;;37.13;;
56567;SDS011;42456;49.956;20.004;2022-11-20T13:17:09;79.20;;;38.83;;
56567;SDS011;42456;49.956;20.004;2022-11-20T13:19:39;80.00;;;40.50;;
56567;SDS011;42456;49.956;20.004;2022-11-20T13:22:07;87.77;;;39.47;;
56567;SDS011;42456;49.956;20.004;2022-11-20T13:24:34;76.90;;;34.73;;
56567;SDS011;42456;49.956;20.004;2022-11-20T13:29:39;93.73;;;43.30;;
56567;SDS011;42456;49.956;20.004;2022-11-20T13:32:16;83.13;;;40.93;;
56567;SDS011;42456;49.956;20.004;2022-11-20T13:34:55;91.27;;;43.27;;
56567;SDS011;42456;49.956;20.004;2022-11-20T13:37:43;86.40;;;40.90;;
56567;SDS011;42456;49.956;20.004;2022-11-20T13:42:51;85.63;;;40.27;;
56567;SDS011;42456;49.956;20.004;2022-11-20T13:45:23;89.50;;;40.83;;
56567;SDS011;42456;49.956;20.004;2022-11-20T13:47:54;79.07;;;38.90;;
56567;SDS011;42456;49.956;20.004;2022-11-20T13:50:29;81.80;;;41.27;;
56567;SDS011;42456;49.956;20.004;2022-11-20T14:01:25;83.23;;;40.47;;
56567;SDS011;42456;49.956;20.004;2022-11-20T14:03:56;84.93;;;39.90;;
56567;SDS011;42456;49.956;20.004;2022-11-20T14:08:57;88.17;;;42.10;;
56567;SDS011;42456;49.956;20.004;2022-11-20T14:14:05;79.62;;;40.70;;
56567;SDS011;42456;49.956;20.004;2022-11-20T14:16:43;91.57;;;42.37;;
56567;SDS011;42456;49.956;20.004;2022-11-20T14:24:36;82.67;;;40.73;;
56567;SDS011;42456;49.956;20.004;2022-11-20T14:27:02;86.07;;;42.47;;
56567;SDS011;42456;49.956;20.004;2022-11-20T14:29:36;77.67;;;39.93;;
56567;SDS011;42456;49.956;20.004;2022-11-20T14:32:04;83.00;;;42.37;;
56567;SDS011;42456;49.956;20.004;2022-11-20T14:34:31;82.13;;;42.03;;
56567;SDS011;42456;49.956;20.004;2022-11-20T14:37:02;82.30;;;40.40;;
56567;SDS011;42456;49.956;20.004;2022-11-20T14:39:34;78.07;;;40.97;;
56567;SDS011;42456;49.956;20.004;2022-11-20T14:42:14;80.50;;;40.60;;
56567;SDS011;42456;49.956;20.004;2022-11-20T14:44:48;79.93;;;41.40;;
56567;SDS011;42456;49.956;20.004;2022-11-20T14:47:18;82.90;;;40.90;;
56567;SDS011;42456;49.956;20.004;2022-11-20T14:49:47;83.00;;;39.63;;
56567;SDS011;42456;49.956;20.004;2022-11-20T14:52:17;88.37;;;42.60;;
56567;SDS011;42456;49.956;20.004;2022-11-20T14:54:46;73.40;;;38.53;;
56567;SDS011;42456;49.956;20.004;2022-11-20T14:57:20;75.00;;;38.37;;
56567;SDS011;42456;49.956;20.004;2022-11-20T15:02:44;85.53;;;42.10;;
56567;SDS011;42456;49.956;20.004;2022-11-20T15:05:12;80.10;;;40.15;;
56567;SDS011;42456;49.956;20.004;2022-11-20T15:07:42;80.27;;;39.60;;
56567;SDS011;42456;49.956;20.004;2022-11-20T15:10:13;77.33;;;39.13;;
56567;SDS011;42456;49.956;20.004;2022-11-20T15:12:55;78.60;;;42.13;;
56567;SDS011;42456;49.956;20.004;2022-11-20T15:15:40;74.15;;;39.85;;
56567;SDS011;42456;49.956;20.004;2022-11-20T15:18:02;82.20;;;42.87;;
56567;SDS011;42456;49.956;20.004;2022-11-20T15:20:30;81.97;;;42.43;;
56567;SDS011;42456;49.956;20.004;2022-11-20T15:22:58;85.40;;;43.47;;
56567;SDS011;42456;49.956;20.004;2022-11-20T15:25:25;79.87;;;41.73;;
56567;SDS011;42456;49.956;20.004;2022-11-20T15:27:55;82.90;;;42.40;;
56567;SDS011;42456;49.956;20.004;2022-11-20T15:30:22;80.43;;;42.83;;
56567;SDS011;42456;49.956;20.004;2022-11-20T15:32:49;78.00;;;40.30;;
56567;SDS011;42456;49.956;20.004;2022-11-20T15:35:16;73.30;;;39.23;;
56567;SDS011;42456;49.956;20.004;2022-11-20T15:37:42;73.60;;;39.17;;
56567;SDS011;42456;49.956;20.004;2022-11-20T15:40:09;77.70;;;41.20;;
56567;SDS011;42456;49.956;20.004;2022-11-20T15:42:36;93.77;;;45.57;;
56567;SDS011;42456;49.956;20.004;2022-11-20T15:45:02;95.60;;;45.17;;
56567;SDS011;42456;49.956;20.004;2022-11-20T15:47:33;90.30;;;44.57;;
56567;SDS011;42456;49.956;20.004;2022-11-20T15:50:01;78.63;;;39.63;;
56567;SDS011;42456;49.956;20.004;2022-11-20T15:52:27;79.40;;;42.40;;
56567;SDS011;42456;49.956;20.004;2022-11-20T15:54:54;89.53;;;44.70;;
56567;SDS011;42456;49.956;20.004;2022-11-20T15:57:20;95.53;;;48.10;;
56567;SDS011;42456;49.956;20.004;2022-11-20T15:59:46;93.33;;;45.93;;
56567;SDS011;42456;49.956;20.004;2022-11-20T16:02:13;91.83;;;46.40;;
56567;SDS011;42456;49.956;20.004;2022-11-20T16:04:41;86.53;;;45.27;;
56567;SDS011;42456;49.956;20.004;2022-11-20T16:07:07;82.13;;;41.80;;
56567;SDS011;42456;49.956;20.004;2022-11-20T16:09:33;79.40;;;42.07;;
56567;SDS011;42456;49.956;20.004;2022-11-20T16:11:59;76.13;;;39.67;;
56567;SDS011;42456;49.956;20.004;2022-11-20T16:14:26;78.47;;;42.10;;
56567;SDS011;42456;49.956;20.004;2022-11-20T16:17:05;78.85;;;39.70;;
56567;SDS011;42456;49.956;20.004;2022-11-20T16:19:33;80.70;;;41.93;;
56567;SDS011;42456;49.956;20.004;2022-11-20T16:21:59;83.30;;;41.40;;
56567;SDS011;42456;49.956;20.004;2022-11-20T16:24:26;82.27;;;42.03;;
56567;SDS011;42456;49.956;20.004;2022-11-20T16:26:53;85.07;;;43.07;;
56567;SDS011;42456;49.956;20.004;2022-11-20T16:29:20;84.53;;;42.53;;
56567;SDS011;42456;49.956;20.004;2022-11-20T16:31:46;79.87;;;41.17;;
56567;SDS011;42456;49.956;20.004;2022-11-20T16:34:12;75.33;;;39.37;;
56567;SDS011;42456;49.956;20.004;2022-11-20T16:36:42;79.92;;;41.60;;
56567;SDS011;42456;49.956;20.004;2022-11-20T16:39:10;82.13;;;42.40;;
56567;SDS011;42456;49.956;20.004;2022-11-20T16:41:37;87.17;;;44.23;;
56567;SDS011;42456;49.956;20.004;2022-11-20T16:44:08;78.30;;;42.03;;
56567;SDS011;42456;49.956;20.004;2022-11-20T16:46:35;81.60;;;41.00;;
56567;SDS011;42456;49.956;20.004;2022-11-20T16:49:04;82.30;;;43.80;;
56567;SDS011;42456;49.956;20.004;2022-11-20T16:51:34;81.53;;;43.07;;